Kezdőlap
METAR-TAF:

METAR-TAF

Repülőterek :

Berlin, New Hampshire, Amerikai Egyesült Államok

földrajzi szélesség: 44-34-34N, földrajzi hosszúság: 071-10-43W, magasság: 353 m

Jelenlegi meteorológiai megfigyelések

A jelentés 38 perccel ezelõtt készült, 01:52 UTC
Nyugati szél 5 kt
Hőmérséklet 5°C
Páratartalom 81%
Légköri nyomás 1010 hPa
Látótávolság: 16.1 km
Szórványos felhőzet 2900 lábon
Szakadozott felhőzet 3700 lábon
Borult 4400 lábon

METAR: KBML 250152Z AUTO 28005KT 10SM SCT029 BKN037 OVC044 05/02 A2982 RMK AO2 SLP108 T00500017

Idő: 22:30 (02:30 UTC)


TAF: hiányzik

Meteorológiai megfigyelések és előrejelzések több, mint 4000 repülőtéren (METAR és TAF jelentéseket).

A térképen piros és sárga pontok jelzik az elérhető meteorológiai állomásokat.

Mozgassa az egeret a pont fölött, hogy megjelenjen az állomás neve.

Azután kattintson az időjárási megfigyelések és előrejelzések megtekintéséhez.

A térkép megváltoztatása: kattintson a fekete keresztel jelölt zöld gombra ráközelítéshez, a vonallal jelölt zöld gombra távolításhoz, vagy a zöld nyilakra a szomszédos térképek eléréséhez.


METAR-TAF: